Terminal Aerodrome Forecast
Issued by NWS

Home | Current Version | Previous Version | Text Only | Print | Product List | Glossary On
Versions: 1 2 3 4 5 6 7 8 9 10 11 12 13 14 15
000
FTUS43 KMPX 290520
TAFRNH
TAF
KRNH 290520Z 2906/3006 27007KT P6SM BKN090
     FM291100 29007KT P6SM OVC025
     FM291400 28014G22KT P6SM OVC015
     FM291800 29017G25KT P6SM VCSH OVC025
      TEMPO 2920/2924 5SM -SHRA BR BKN015 OVC020
     FM300100 28007KT P6SM OVC050=

USA.gov is the U.S. government's official web portal to all federal, state and local government web resources and services.